createdAt,value
2023-02-09T00:01:45.914Z,101893.13
2023-02-09T00:04:17.751Z,101905.34
2023-02-09T00:06:47.643Z,101907.97
2023-02-09T00:09:21.696Z,101888.78
2023-02-09T00:12:10.745Z,101891.38
2023-02-09T00:14:49.567Z,101880.97
2023-02-09T00:17:21.418Z,101883.69
2023-02-09T00:19:52.009Z,101874.94
2023-02-09T00:22:29.222Z,101887.19
2023-02-09T00:25:05.764Z,101882.75
2023-02-09T00:27:37.778Z,101869.72
2023-02-09T00:30:11.766Z,101869.69
2023-02-09T00:32:43.813Z,101875.03
2023-02-09T00:35:20.039Z,101865.41
2023-02-09T00:37:49.553Z,101868.03
2023-02-09T00:40:26.905Z,101863.72
2023-02-09T00:43:06.907Z,101867.13
2023-02-09T00:45:42.278Z,101861.16
2023-02-09T00:48:20.059Z,101850.59
2023-02-09T00:50:48.705Z,101841.03
2023-02-09T00:53:27.084Z,101831.47
2023-02-09T00:56:00.423Z,101836.59
2023-02-09T00:58:33.061Z,101840.09
2023-02-09T01:01:22.314Z,101821.94
2023-02-09T01:04:00.942Z,101824.47
2023-02-09T01:06:39.598Z,101846.28
2023-02-09T01:09:09.967Z,101830.66
2023-02-09T01:11:42.140Z,101820.19
2023-02-09T01:14:30.344Z,101817.53
2023-02-09T01:17:06.129Z,101802.69
2023-02-09T01:19:37.450Z,101804.47
2023-02-09T01:22:07.226Z,101796.75
2023-02-09T01:24:42.678Z,101806.31
2023-02-09T01:27:14.115Z,101797.47
2023-02-09T01:29:51.801Z,101794.84
2023-02-09T01:32:30.429Z,101791.47
2023-02-09T01:35:14.428Z,101786.19
2023-02-09T01:37:44.173Z,101792.38
2023-02-09T01:40:19.365Z,101788.09
2023-02-09T01:42:57.470Z,101783.72
2023-02-09T01:45:36.395Z,101774.94
2023-02-09T01:48:08.630Z,101781.81
2023-02-09T01:50:45.238Z,101769.66
2023-02-09T01:53:29.935Z,101760.88
2023-02-09T01:56:17.664Z,101765.31
2023-02-09T01:58:51.462Z,101757.47
2023-02-09T02:01:24.663Z,101754.84
2023-02-09T02:04:00.998Z,101739.22
2023-02-09T02:06:36.861Z,101726.19
2023-02-09T02:09:20.445Z,101726.06
2023-02-09T02:12:06.057Z,101733.03
2023-02-09T02:14:40.711Z,101721.66
2023-02-09T02:17:30.124Z,101728.69
2023-02-09T02:20:48.799Z,101720.78
2023-02-09T02:23:40.117Z,101708.69
2023-02-09T02:26:45.877Z,101715.63
2023-02-09T02:29:54.709Z,101717.31
2023-02-09T02:32:45.617Z,101715.66
2023-02-09T02:35:22.948Z,101703.31
2023-02-09T02:38:06.180Z,101719.88
2023-02-09T02:40:47.417Z,101710.38
2023-02-09T02:43:26.886Z,101715.66
2023-02-09T02:46:04.601Z,101718.22
2023-02-09T02:48:51.425Z,101713.03
2023-02-09T02:51:32.524Z,101706.19
2023-02-09T02:54:10.351Z,101696.50
2023-02-09T02:56:46.544Z,101699.22
2023-02-09T02:59:23.993Z,101708.69
2023-02-09T03:01:59.537Z,101707.78
2023-02-09T03:04:40.883Z,101710.44
2023-02-09T03:07:10.661Z,101708.72
2023-02-09T03:09:50.678Z,101720.75
2023-02-09T03:12:39.663Z,101713.06
2023-02-09T03:15:41.103Z,101713.13
2023-02-09T03:18:34.752Z,101727.88
2023-02-09T03:21:30.574Z,101715.69
2023-02-09T03:24:06.869Z,101723.56
2023-02-09T03:26:48.211Z,101718.44
2023-02-09T03:29:22.182Z,101719.31
2023-02-09T03:31:53.893Z,101722.66
2023-02-09T03:34:35.065Z,101718.34
2023-02-09T03:37:08.813Z,101723.47
2023-02-09T03:39:47.315Z,101724.41
2023-02-09T03:42:29.347Z,101715.63
2023-02-09T03:44:59.407Z,101722.59
2023-02-09T03:47:31.531Z,101735.66
2023-02-09T03:50:01.899Z,101724.38
2023-02-09T03:52:42.558Z,101727.84
2023-02-09T03:55:16.575Z,101713.13
2023-02-09T03:57:50.414Z,101712.16
2023-02-09T04:00:24.634Z,101713.84
2023-02-09T04:02:55.342Z,101719.97
2023-02-09T04:05:35.358Z,101710.47
2023-02-09T04:08:09.796Z,101717.44
2023-02-09T04:10:46.855Z,101708.69
2023-02-09T04:13:24.498Z,101721.75
2023-02-09T04:16:08.276Z,101719.03
2023-02-09T04:18:43.146Z,101715.59
2023-02-09T04:21:14.606Z,101706.97
2023-02-09T04:23:49.873Z,101718.28
2023-02-09T04:26:26.620Z,101706.09
2023-02-09T04:28:56.254Z,101712.94
2023-02-09T04:31:37.296Z,101708.69
2023-02-09T04:34:07.187Z,101720.78
2023-02-09T04:36:38.682Z,101706.91
2023-02-09T04:39:29.191Z,101717.22
2023-02-09T04:42:04.064Z,101711.28
2023-02-09T04:44:35.769Z,101709.56
2023-02-09T04:47:08.900Z,101715.66
2023-02-09T04:49:45.292Z,101719.97
2023-02-09T04:52:25.316Z,101718.19
2023-02-09T04:54:56.380Z,101722.63
2023-02-09T04:57:43.504Z,101719.06
2023-02-09T05:00:26.730Z,101729.63
2023-02-09T05:02:56.493Z,101716.59
2023-02-09T05:05:28.079Z,101712.22
2023-02-09T05:07:57.175Z,101720.06
2023-02-09T05:10:34.630Z,101718.28
2023-02-09T05:13:13.375Z,101712.31
2023-02-09T05:15:59.380Z,101714.03
2023-02-09T05:18:31.361Z,101714.91
2023-02-09T05:21:10.196Z,101726.16
2023-02-09T05:23:52.850Z,101721.81
2023-02-09T05:26:30.350Z,101732.22
2023-02-09T05:28:59.315Z,101729.66
2023-02-09T05:31:35.659Z,101710.53
2023-02-09T05:34:08.767Z,101716.63
2023-02-09T05:36:47.053Z,101723.66
2023-02-09T05:39:24.078Z,101720.19
2023-02-09T05:42:13.417Z,101721.88
2023-02-09T05:44:50.322Z,101727.97
2023-02-09T05:47:25.834Z,101708.06
2023-02-09T05:49:59.396Z,101717.59
2023-02-09T05:52:31.166Z,101712.44
2023-02-09T05:55:13.217Z,101706.31
2023-02-09T05:57:56.386Z,101712.38
2023-02-09T06:00:27.212Z,101714.16
2023-02-09T06:02:58.803Z,101715.06
2023-02-09T06:05:35.549Z,101708.09
2023-02-09T06:08:07.924Z,101715.78
2023-02-09T06:10:40.020Z,101715.94
2023-02-09T06:13:17.226Z,101712.38
2023-02-09T06:15:53.140Z,101717.72
2023-02-09T06:18:36.312Z,101723.75
2023-02-09T06:21:22.474Z,101735.13
2023-02-09T06:23:54.597Z,101732.50
2023-02-09T06:26:25.079Z,101717.69
2023-02-09T06:28:56.106Z,101731.72
2023-02-09T06:31:35.470Z,101739.53
2023-02-09T06:34:13.756Z,101729.09
2023-02-09T06:36:50.948Z,101735.19
2023-02-09T06:39:36.311Z,101750.88
2023-02-09T06:42:06.931Z,101741.25
2023-02-09T06:44:39.696Z,101745.50
2023-02-09T06:47:09.454Z,101738.59
2023-02-09T06:49:51.521Z,101749.03
2023-02-09T06:52:31.522Z,101748.06
2023-02-09T06:55:06.292Z,101741.19
2023-02-09T06:57:36.546Z,101742.06
2023-02-09T07:00:15.563Z,101741.16
2023-02-09T07:03:03.308Z,101739.44
2023-02-09T07:05:34.005Z,101749.78
2023-02-09T07:08:04.678Z,101746.28
2023-02-09T07:10:32.937Z,101748.94
2023-02-09T07:13:04.663Z,101751.53
2023-02-09T07:15:39.667Z,101759.47
2023-02-09T07:18:14.776Z,101753.34
2023-02-09T07:20:43.049Z,101759.28
2023-02-09T07:23:12.236Z,101749.72
2023-02-09T07:25:45.404Z,101750.59
2023-02-09T07:28:14.614Z,101755.84
2023-02-09T07:30:49.344Z,101756.75
2023-02-09T07:33:17.950Z,101746.19
2023-02-09T07:35:47.540Z,101740.97
2023-02-09T07:38:18.952Z,101745.31
2023-02-09T07:40:56.133Z,101748.78
2023-02-09T07:43:25.406Z,101745.16
2023-02-09T07:46:17.254Z,101748.63
2023-02-09T07:48:47.276Z,101748.56
2023-02-09T07:51:17.148Z,101745.84
2023-02-09T07:53:51.226Z,101744.88
2023-02-09T07:56:34.101Z,101744.00
2023-02-09T07:59:06.737Z,101745.63
2023-02-09T08:01:46.172Z,101742.03
2023-02-09T08:04:16.635Z,101735.97
2023-02-09T08:06:50.268Z,101751.50
2023-02-09T08:09:21.899Z,101751.47
2023-02-09T08:11:54.462Z,101748.72
2023-02-09T08:14:28.458Z,101752.22
2023-02-09T08:17:16.355Z,101751.25
2023-02-09T08:19:46.996Z,101744.22
2023-02-09T08:22:19.198Z,101736.94
2023-02-09T08:24:54.909Z,101734.53
2023-02-09T08:27:24.215Z,101737.03
2023-02-09T08:29:53.739Z,101733.22
2023-02-09T08:32:28.192Z,101721.16
2023-02-09T08:34:57.504Z,101733.25
2023-02-09T08:37:29.371Z,101728.97
2023-02-09T08:39:59.204Z,101725.44
2023-02-09T08:42:30.440Z,101726.25
2023-02-09T08:45:00.192Z,101731.44
2023-02-09T08:47:46.834Z,101734.69
2023-02-09T08:50:16.776Z,101739.06
2023-02-09T08:52:46.480Z,101730.31
2023-02-09T08:55:17.647Z,101737.97
2023-02-09T08:57:46.069Z,101735.16
2023-02-09T09:00:20.849Z,101732.50
2023-02-09T09:02:51.802Z,101728.16
2023-02-09T09:05:25.256Z,101728.69
2023-02-09T09:07:54.722Z,101729.59
2023-02-09T09:10:24.262Z,101736.50
2023-02-09T09:12:54.619Z,101724.59
2023-02-09T09:15:24.205Z,101717.78
2023-02-09T09:18:05.133Z,101717.69
2023-02-09T09:20:34.065Z,101722.72
2023-02-09T09:23:08.223Z,101727.91
2023-02-09T09:25:49.206Z,101716.91
2023-02-09T09:28:20.402Z,101728.34
2023-02-09T09:30:51.263Z,101718.84
2023-02-09T09:33:23.509Z,101712.47
2023-02-09T09:35:52.140Z,101713.16
2023-02-09T09:38:24.493Z,101712.19
2023-02-09T09:40:56.542Z,101704.28
2023-02-09T09:43:35.724Z,101708.13
2023-02-09T09:46:05.555Z,101708.97
2023-02-09T09:48:52.485Z,101708.78
2023-02-09T09:51:26.125Z,101713.00
2023-02-09T09:54:01.254Z,101711.06
2023-02-09T09:56:33.997Z,101706.38
2023-02-09T09:59:03.900Z,101704.88
2023-02-09T10:01:34.556Z,101705.75
2023-02-09T10:04:10.930Z,101704.28
2023-02-09T10:06:42.678Z,101706.47
2023-02-09T10:09:23.847Z,101691.53
2023-02-09T10:12:01.109Z,101682.88
2023-02-09T10:14:32.809Z,101683.09
2023-02-09T10:17:04.681Z,101683.03
2023-02-09T10:19:40.052Z,101683.50
2023-02-09T10:22:16.634Z,101680.34
2023-02-09T10:24:46.168Z,101669.78
2023-02-09T10:27:20.708Z,101672.59
2023-02-09T10:29:49.657Z,101663.81
2023-02-09T10:32:27.578Z,101654.28
2023-02-09T10:35:04.955Z,101648.13
2023-02-09T10:37:39.421Z,101657.59
2023-02-09T10:40:15.945Z,101641.66
2023-02-09T10:42:57.544Z,101657.41
2023-02-09T10:45:30.023Z,101640.28
2023-02-09T10:48:00.465Z,101647.75
2023-02-09T10:50:34.574Z,101649.47
2023-02-09T10:53:17.936Z,101642.13
2023-02-09T10:55:47.962Z,101639.13
2023-02-09T10:58:24.235Z,101637.50
2023-02-09T11:01:03.716Z,101635.81
2023-02-09T11:03:34.277Z,101614.66
2023-02-09T11:06:09.428Z,101616.25
2023-02-09T11:08:48.343Z,101614.97
2023-02-09T11:11:30.606Z,101604.03
2023-02-09T11:14:10.559Z,101604.97
2023-02-09T11:16:59.130Z,101595.91
2023-02-09T11:20:08.003Z,101589.16
2023-02-09T11:23:29.246Z,101584.75
2023-02-09T11:26:05.885Z,101588.19
2023-02-09T11:28:53.718Z,101586.97
2023-02-09T11:31:47.132Z,101583.66
2023-02-09T11:37:37.641Z,101594.31
2023-02-09T11:40:28.009Z,101587.31
2023-02-09T11:43:10.532Z,101583.44
2023-02-09T11:45:46.730Z,101584.53
2023-02-09T11:48:26.870Z,101579.22
2023-02-09T11:51:10.681Z,101571.88
2023-02-09T11:53:46.136Z,101566.00
2023-02-09T11:56:25.355Z,101565.88
2023-02-09T11:59:02.654Z,101559.88
2023-02-09T12:01:45.367Z,101561.88
2023-02-09T12:04:23.931Z,101558.13
2023-02-09T12:07:05.917Z,101563.41
2023-02-09T12:09:55.529Z,101542.47
2023-02-09T12:12:46.267Z,101554.28
2023-02-09T12:15:25.021Z,101542.84
2023-02-09T12:18:05.881Z,101548.22
2023-02-09T12:20:56.288Z,101537.91
2023-02-09T12:23:35.015Z,101523.84
2023-02-09T12:26:42.421Z,101518.47
2023-02-09T12:29:44.601Z,101516.03
2023-02-09T12:32:50.813Z,101511.16
2023-02-09T12:35:28.036Z,101499.13
2023-02-09T12:38:21.326Z,101517.44
2023-02-09T12:41:04.164Z,101498.22
2023-02-09T12:43:47.865Z,101497.22
2023-02-09T12:46:29.462Z,101492.69
2023-02-09T12:49:11.553Z,101495.34
2023-02-09T12:52:21.725Z,101486.81
2023-02-09T12:54:54.252Z,101489.06
2023-02-09T12:57:54.469Z,101485.31
2023-02-09T13:00:44.812Z,101478.88
2023-02-09T13:03:25.435Z,101473.38
2023-02-09T13:05:58.676Z,101472.84
2023-02-09T13:08:47.004Z,101470.06
2023-02-09T13:11:32.851Z,101468.97
2023-02-09T13:14:13.565Z,101465.91
2023-02-09T13:17:16.624Z,101469.72
2023-02-09T13:20:36.044Z,101461.47
2023-02-09T13:23:33.237Z,101463.47
2023-02-09T13:26:30.223Z,101453.03
2023-02-09T13:29:22.008Z,101446.88
2023-02-09T13:32:02.330Z,101456.84
2023-02-09T13:34:40.385Z,101453.13
2023-02-09T13:37:25.741Z,101449.31
2023-02-09T13:40:03.182Z,101460.63
2023-02-09T13:42:36.796Z,101454.16
2023-02-09T13:45:23.459Z,101441.78
2023-02-09T13:47:55.832Z,101427.94
2023-02-09T13:50:28.375Z,101433.53
2023-02-09T13:53:17.125Z,101436.47
2023-02-09T13:55:48.445Z,101439.25
2023-02-09T13:58:24.592Z,101433.47
2023-02-09T14:00:55.914Z,101432.47
2023-02-09T14:03:27.952Z,101433.81
2023-02-09T14:06:02.881Z,101435.84
2023-02-09T14:08:35.698Z,101442.78
2023-02-09T14:11:14.781Z,101430.59
2023-02-09T14:13:47.458Z,101435.53
2023-02-09T14:16:29.531Z,101433.56
2023-02-09T14:19:04.045Z,101438.63
2023-02-09T14:21:48.660Z,101439.94
2023-02-09T14:24:21.993Z,101442.97
2023-02-09T14:27:03.282Z,101437.97
2023-02-09T14:29:38.838Z,101432.63
2023-02-09T14:32:33.062Z,101430.13
2023-02-09T14:35:19.389Z,101428.09
2023-02-09T14:37:59.416Z,101423.72
2023-02-09T14:40:34.156Z,101423.22
2023-02-09T14:43:22.808Z,101433.34
2023-02-09T14:46:02.934Z,101416.28
2023-02-09T14:48:34.939Z,101415.47
2023-02-09T14:51:14.788Z,101413.56
2023-02-09T14:53:56.818Z,101404.34
2023-02-09T14:56:34.672Z,101408.38
2023-02-09T14:59:05.754Z,101416.53
2023-02-09T15:01:34.802Z,101416.13
2023-02-09T15:04:04.596Z,101408.22
2023-02-09T15:06:36.165Z,101402.13
2023-02-09T15:09:15.370Z,101408.47
2023-02-09T15:12:01.123Z,101412.34
2023-02-09T15:14:40.341Z,101416.91
2023-02-09T15:17:20.215Z,101420.94
2023-02-09T15:19:50.311Z,101414.41
2023-02-09T15:22:23.931Z,101412.34
2023-02-09T15:25:02.703Z,101414.84
2023-02-09T15:27:35.616Z,101421.19
2023-02-09T15:30:21.743Z,101425.03
2023-02-09T15:32:50.583Z,101421.34
2023-02-09T15:35:22.664Z,101422.50
2023-02-09T15:37:57.672Z,101415.28
2023-02-09T15:40:48.990Z,101414.41
2023-02-09T15:43:38.421Z,101408.63
2023-02-09T15:46:28.065Z,101413.06
2023-02-09T15:48:56.585Z,101415.31
2023-02-09T15:51:29.967Z,101414.56
2023-02-09T15:54:01.684Z,101406.00
2023-02-09T15:56:38.647Z,101400.88
2023-02-09T15:59:09.476Z,101406.91
2023-02-09T16:01:40.426Z,101414.09
2023-02-09T16:04:14.489Z,101423.94
2023-02-09T16:06:55.469Z,101425.22
2023-02-09T16:09:29.122Z,101423.41
2023-02-09T16:12:10.506Z,101431.34
2023-02-09T16:14:40.717Z,101426.28
2023-02-09T16:17:09.666Z,101439.53
2023-02-09T16:19:40.878Z,101433.50
2023-02-09T16:22:11.830Z,101435.50
2023-02-09T16:24:43.575Z,101438.22
2023-02-09T16:27:24.809Z,101434.47
2023-02-09T16:29:57.052Z,101425.22
2023-02-09T16:32:33.313Z,101424.41
2023-02-09T16:35:16.605Z,101421.81
2023-02-09T16:37:51.393Z,101421.97
2023-02-09T16:40:29.967Z,101423.22
2023-02-09T16:43:06.352Z,101420.44
2023-02-09T16:45:39.630Z,101425.22
2023-02-09T16:48:14.424Z,101431.63
2023-02-09T16:50:46.910Z,101433.13
2023-02-09T16:53:19.242Z,101433.28
2023-02-09T16:55:55.027Z,101424.00
2023-02-09T16:58:26.825Z,101435.19
2023-02-09T17:01:00.907Z,101434.53
2023-02-09T17:03:41.337Z,101413.84
2023-02-09T17:06:21.281Z,101420.00
2023-02-09T17:09:07.311Z,101410.81
2023-02-09T17:11:51.320Z,101397.72
2023-02-09T17:14:26.265Z,101416.09
2023-02-09T17:17:04.318Z,101413.06
2023-02-09T17:19:46.944Z,101418.22
2023-02-09T17:22:32.247Z,101418.16
2023-02-09T17:25:13.495Z,101424.94
2023-02-09T17:27:54.818Z,101417.09
2023-02-09T17:30:52.579Z,101415.75
2023-02-09T17:33:28.109Z,101416.22
2023-02-09T17:36:25.835Z,101407.78
2023-02-09T17:39:08.134Z,101421.06
2023-02-09T17:41:51.456Z,101411.78
2023-02-09T17:44:45.593Z,101415.78
2023-02-09T17:47:26.465Z,101410.63
2023-02-09T17:50:00.382Z,101411.09
2023-02-09T17:52:39.342Z,101411.78
2023-02-09T17:55:11.527Z,101419.03
2023-02-09T17:57:41.617Z,101419.00
2023-02-09T18:00:14.263Z,101417.31
2023-02-09T18:02:59.810Z,101426.69
2023-02-09T18:05:41.370Z,101427.50
2023-02-09T18:08:16.273Z,101426.06
2023-02-09T18:11:01.285Z,101419.25
2023-02-09T18:13:36.259Z,101425.75
2023-02-09T18:16:09.033Z,101430.13
2023-02-09T18:19:07.314Z,101425.88
2023-02-09T18:21:58.011Z,101411.28
2023-02-09T18:24:38.585Z,101420.19
2023-02-09T18:27:11.329Z,101417.03
2023-02-09T18:29:51.399Z,101409.44
2023-02-09T18:32:32.238Z,101401.19
2023-02-09T18:35:08.320Z,101410.91
2023-02-09T18:37:39.405Z,101414.66
2023-02-09T18:40:22.769Z,101413.06
2023-02-09T18:46:03.731Z,101420.50
2023-02-09T18:48:44.949Z,101432.78
2023-02-09T18:51:25.409Z,101421.78
2023-02-09T18:54:04.004Z,101430.34
2023-02-09T18:56:35.800Z,101426.81
2023-02-09T18:59:13.040Z,101443.75
2023-02-09T19:01:53.940Z,101434.59
2023-02-09T19:04:32.310Z,101427.72
2023-02-09T19:07:15.583Z,101441.59
2023-02-09T19:09:58.832Z,101435.44
2023-02-09T19:12:29.673Z,101438.91
2023-02-09T19:15:00.666Z,101433.59
2023-02-09T19:17:40.979Z,101438.66
2023-02-09T19:20:24.515Z,101439.94
2023-02-09T19:23:05.683Z,101435.47
2023-02-09T19:25:42.629Z,101433.03
2023-02-09T19:28:25.561Z,101431.41
2023-02-09T19:31:05.913Z,101435.03
2023-02-09T19:33:41.517Z,101438.03
2023-02-09T19:36:25.685Z,101444.34
2023-02-09T19:39:10.980Z,101446.94
2023-02-09T19:41:57.484Z,101440.84
2023-02-09T19:44:29.588Z,101442.13
2023-02-09T19:47:00.004Z,101441.16
2023-02-09T19:49:39.441Z,101439.91
2023-02-09T19:52:21.792Z,101439.06
2023-02-09T19:55:05.284Z,101440.72
2023-02-09T19:57:44.030Z,101437.47
2023-02-09T20:00:27.712Z,101446.88
2023-02-09T20:03:00.743Z,101428.69
2023-02-09T20:05:37.033Z,101430.00
2023-02-09T20:08:11.009Z,101415.19
2023-02-09T20:10:44.645Z,101404.63
2023-02-09T20:13:24.460Z,101405.59
2023-02-09T20:15:57.062Z,101407.25
2023-02-09T20:18:29.360Z,101415.34
2023-02-09T20:21:01.213Z,101426.81
2023-02-09T20:23:40.541Z,101424.28
2023-02-09T20:26:33.998Z,101415.22
2023-02-09T20:29:09.194Z,101420.38
2023-02-09T20:31:42.611Z,101413.63
2023-02-09T20:34:19.529Z,101414.38
2023-02-09T20:37:08.967Z,101409.22
2023-02-09T20:39:43.413Z,101403.19
2023-02-09T20:45:50.041Z,101409.34
2023-02-09T20:48:24.021Z,101390.16
2023-02-09T20:50:56.867Z,101394.06
2023-02-09T20:53:30.156Z,101395.16
2023-02-09T20:56:13.070Z,101404.03
2023-02-09T20:58:49.713Z,101395.50
2023-02-09T21:01:24.165Z,101389.47
2023-02-09T21:03:57.596Z,101377.94
2023-02-09T21:06:30.635Z,101378.72
2023-02-09T21:09:08.983Z,101396.22
2023-02-09T21:11:44.982Z,101401.47
2023-02-09T21:14:41.842Z,101394.75
2023-02-09T21:17:13.181Z,101400.19
2023-02-09T21:19:52.983Z,101401.84
2023-02-09T21:22:27.038Z,101398.22
2023-02-09T21:24:58.196Z,101386.16
2023-02-09T21:27:45.429Z,101390.38
2023-02-09T21:30:27.807Z,101382.50
2023-02-09T21:33:12.488Z,101382.53
2023-02-09T21:35:45.238Z,101383.28
2023-02-09T21:38:20.791Z,101390.56
2023-02-09T21:40:55.647Z,101398.47
2023-02-09T21:43:33.062Z,101403.13
2023-02-09T21:46:08.409Z,101392.56
2023-02-09T21:48:40.686Z,101395.78
2023-02-09T21:51:10.681Z,101412.31
2023-02-09T21:53:40.653Z,101397.56
2023-02-09T21:56:12.517Z,101397.00
2023-02-09T21:58:41.195Z,101390.03
2023-02-09T22:01:13.333Z,101404.78
2023-02-09T22:03:51.018Z,101397.84
2023-02-09T22:06:21.861Z,101406.47
2023-02-09T22:08:52.354Z,101397.94
2023-02-09T22:11:29.724Z,101401.78
2023-02-09T22:13:57.997Z,101407.88
2023-02-09T22:16:29.586Z,101406.00
2023-02-09T22:19:00.220Z,101408.75
2023-02-09T22:21:35.582Z,101393.69
2023-02-09T22:24:05.436Z,101397.38
2023-02-09T22:26:35.009Z,101404.50
2023-02-09T22:29:06.126Z,101403.84
2023-02-09T22:31:51.680Z,101405.41
2023-02-09T22:34:20.063Z,101405.44
2023-02-09T22:36:52.970Z,101400.31
2023-02-09T22:39:22.682Z,101415.22
2023-02-09T22:41:57.078Z,101404.03
2023-02-09T22:44:30.291Z,101423.03
2023-02-09T22:47:04.726Z,101409.94
2023-02-09T22:49:33.216Z,101417.09
2023-02-09T22:52:07.203Z,101410.06
2023-02-09T22:54:36.117Z,101415.47
2023-02-09T22:57:14.654Z,101395.38
2023-02-09T22:59:44.294Z,101405.81
2023-02-09T23:02:26.066Z,101399.00
2023-02-09T23:05:03.979Z,101387.59
2023-02-09T23:07:38.743Z,101406.94
2023-02-09T23:10:10.026Z,101384.81
2023-02-09T23:12:41.700Z,101385.88
2023-02-09T23:15:21.190Z,101394.69
2023-02-09T23:17:54.171Z,101386.72
2023-02-09T23:20:25.694Z,101393.72
2023-02-09T23:22:56.448Z,101411.38
2023-02-09T23:25:27.309Z,101396.56
2023-02-09T23:27:59.060Z,101388.56
2023-02-09T23:30:28.585Z,101383.19
2023-02-09T23:33:00.808Z,101404.50
2023-02-09T23:35:32.016Z,101399.19
2023-02-09T23:38:11.310Z,101418.22
2023-02-09T23:40:44.014Z,101419.13
2023-02-09T23:43:26.483Z,101426.97
2023-02-09T23:46:00.280Z,101422.53
2023-02-09T23:48:44.353Z,101423.56
2023-02-09T23:51:24.149Z,101428.69
2023-02-09T23:53:55.453Z,101423.94
2023-02-09T23:56:24.675Z,101420.59
2023-02-09T23:58:55.375Z,101416.25
